27 de mayo de 2022

Hora Código Tiempo Temp. Visibilidad Cielo nuboso Viento METAR/SPECI
12:00 p. m.
V
68 °F 40 mi 21.000 ft 200° 200° 8 kt METAR CYYC 271800Z CCA 20008KT 100V230 40SM FEW067 SCT180 BKN210 20/04 A2961 RMK AC2AS1CI5 AS TR SLP024 DENSITY ALT 5400FT
11:00 a. m.
V
64 °F 40 mi - 200° 200° 5 kt METAR CYYC 271700Z 20005KT 150V250 40SM FEW085 FEW180 SCT210 18/04 A2962 RMK AC1AS1CI2 SLP029 DENSITY ALT 5200FT
10:00 a. m.
V
61 °F 40 mi - 210° 210° 6 kt METAR CYYC 271600Z 21006KT 40SM FEW085 FEW180 SCT200 16/03 A2965 RMK AC1AS1CI1 SLP038 DENSITY ALT 4900FT
9:00 a. m.
V
57 °F 40 mi 16.000 ft 200° 200° 2 kt METAR CYYC 271500Z 20002KT 40SM FEW083 BKN160 14/02 A2966 RMK AC1AS6 SLP045 DENSITY ALT 4600FT
8:00 a. m.
V
54 °F 30 mi 15.000 ft 200° 200° 3 kt METAR CYYC 271400Z 20003KT 170V290 30SM FEW083 BKN150 12/03 A2968 RMK AC1AS6 SLP051 DENSITY ALT 4400FT
7:00 a. m.
V
54 °F 20 mi 18.000 ft Var 000° 0 kt METAR CYYC 271300Z 00000KT 20SM SCT085 OVC180 12/00 A2969 RMK AC3AS5 SLP055 DENSITY ALT 4400FT
6:00 a. m.
V
52 °F 20 mi 8.700 ft 230° 230° 7 kt METAR CYYC 271200Z 23007KT 20SM BKN087 OVC220 11/M01 A2970 RMK AC6CI2 VIS SW 40 / VIRGA ALQDS SLP058 DENSITY ALT 4300FT
5:00 a. m.
V
54 °F 15 mi 8.900 ft Var 000° 0 kt METAR CYYC 271100Z 00000KT 15SM BKN089 12/M00 A2969 RMK AC6 SLP057 DENSITY ALT 4400FT
4:00 a. m.
V
52 °F 15 mi 10.000 ft 020° 020° 4 kt METAR CYYC 271000Z 02004KT 310V030 15SM BKN100 11/00 A2972 RMK AC5 SLP068 DENSITY ALT 4200FT
3:00 a. m.
V
52 °F 15 mi - Var Var 2 kt METAR CYYC 270900Z VRB02KT 15SM SCT110 11/00 A2974 RMK AC3 SLP074 DENSITY ALT 4200FT
2:00 a. m.
V
52 °F 15 mi - Var 000° 0 kt METAR CYYC 270800Z 00000KT 15SM FEW140 FEW170 FEW200 11/M01 A2975 RMK AC1AC2CI1 AC TR CI TR SLP077 DENSITY ALT 4200FT
1:00 a. m.
V
52 °F 15 mi - 360° 360° 3 kt METAR CYYC 270700Z 36003KT 15SM SKC 11/M00 A2976 RMK SLP081 DENSITY ALT 4200FT
12:00 a. m.
V
61 °F 15 mi - 280° 280° 5 kt METAR CYYC 270600Z 28005KT 260V340 15SM FEW260 16/M01 A2977 RMK CI1 CI TR SLP081 DENSITY ALT 4700FT

26 de mayo de 2022

Hora Código Tiempo Temp. Visibilidad Cielo nuboso Viento METAR/SPECI
11:00 p. m.
V
59 °F 15 mi - Var Var 2 kt METAR CYYC 270500Z VRB02KT 15SM FEW260 15/M01 A2977 RMK CI2 SLP084 DENSITY ALT 4700FT
10:00 p. m.
V
64 °F 20 mi 26.000 ft 290° 290° 5 kt METAR CYYC 270400Z 29005KT 20SM FEW095 FEW190 BKN260 18/M02 A2978 RMK AC1AC2CI3 AC TR SLP083 DENSITY ALT 5000FT
9:00 p. m.
V
64 °F 30 mi 30.000 ft 310° 310° 9 kt METAR CYYC 270300Z 31009KT 30SM FEW094 BKN300 18/M02 A2977 RMK AC2CI5 CONTRAILS SLP084 DENSITY ALT 5000FT
8:00 p. m.
V
66 °F 20 mi 30.000 ft 170° 170° 7 kt METAR CYYC 270200Z 17007KT 20SM SCT098 BKN300 19/M03 A2977 RMK AC3CI3 CONTRAILS SLP085 DENSITY ALT 5200FT
7:00 p. m.
V
68 °F 25 mi 21.000 ft 220° 220° 4 kt METAR CYYC 270100Z 22004KT 150V240 25SM FEW140 OVC210 20/M03 A2978 RMK AC1CI7 CONTRAILS SLP093 DENSITY ALT 5200FT
6:00 p. m.
V
68 °F 30 mi 23.000 ft 170° 170° 7 kt METAR CYYC 270000Z 17007KT 140V250 30SM FEW140 BKN230 OVC250 20/M04 A2980 RMK AC1CI4CS3 SLP101 DENSITY ALT 5200FT
5:00 p. m.
V
66 °F 35 mi 23.000 ft Var 000° 0 kt METAR CYYC 262300Z 00000KT 35SM FEW090 FEW140 OVC230 19/M05 A2982 RMK AC1AC2CI6 AC TR SLP107 DENSITY ALT 5100FT
4:00 p. m.
V
68 °F 35 mi 23.000 ft 310° 310° 9 - 15 kt METAR CYYC 262200Z 31009G15KT 250V360 35SM FEW090 FEW180 BKN230 20/M05 A2984 RMK AC1AC1CI5 CONTRAILS SLP111 DENSITY ALT 5100FT
3:00 p. m.
V
68 °F 40 mi 23.000 ft 310° 310° 8 - 15 kt METAR CYYC 262100Z 31008G15KT 240V340 40SM FEW090 SCT180 BKN230 20/M05 A2984 RMK AC2AC1CI4 SLP113 DENSITY ALT 5100FT
2:00 p. m.
V
64 °F 40 mi 23.000 ft 210° 210° 6 - 18 kt METAR CYYC 262000Z 21006G18KT 150V230 40SM FEW085 SCT180 BKN230 18/M03 A2986 RMK AC2AC1CI3 SLP119 DENSITY ALT 4900FT
1:00 p. m.
V
64 °F 40 mi 23.000 ft 200° 200° 8 - 15 kt METAR CYYC 261900Z 20008G15KT 160V230 40SM FEW082 SCT180 BKN230 18/M03 A2988 RMK AC2AC1CI3 SLP124 DENSITY ALT 4900FT
12:00 p. m.
V
64 °F 40 mi 23.000 ft 170° 170° 5 kt METAR CYYC 261800Z 17005KT 130V240 40SM FEW080 SCT180 BKN230 18/M02 A2989 RMK AC2AC1CI3 SLP126 DENSITY ALT 4800FT
11:00 a. m.
V
63 °F 30 mi 23.000 ft 180° 180° 5 kt METAR CYYC 261700Z 18005KT 140V230 30SM FEW076 FEW180 BKN230 17/M01 A2990 RMK AC1AC1CI4 SLP129 DENSITY ALT 4700FT
10:00 a. m.
V
61 °F 30 mi 23.000 ft Var 000° 0 kt METAR CYYC 261600Z 00000KT 30SM FEW180 BKN230 16/M02 A2990 RMK AC1CC5 SLP131 DENSITY ALT 4600FT
9:00 a. m.
V
55 °F 30 mi 23.000 ft Var Var 2 kt METAR CYYC 261500Z VRB02KT 30SM FEW180 BKN230 13/M02 A2991 RMK AC1CC5 SLP134 DENSITY ALT 4300FT
8:00 a. m.
V
52 °F 30 mi 18.000 ft Var Var 2 kt METAR CYYC 261400Z VRB02KT 30SM BKN180 11/M01 A2991 RMK AC6 SLP137 DENSITY ALT 4000FT
7:00 a. m.
V
45 °F 30 mi 26.000 ft 350° 350° 3 kt METAR CYYC 261300Z 35003KT 30SM SCT180 BKN260 07/M03 A2990 RMK AC3CI4 SLP138
6:00 a. m.
V
45 °F 30 mi 18.000 ft 310° 310° 3 kt METAR CYYC 261200Z 31003KT 30SM FEW089 BKN180 BKN270 07/M04 A2989 RMK AC1AC5CI2 AC TR SLP134
5:00 a. m.
V
45 °F 15 mi - 350° 350° 4 kt METAR CYYC 261100Z 35004KT 15SM SCT220 07/M04 A2989 RMK CI3 SLP131
4:00 a. m.
V
48 °F 15 mi - 330° 330° 4 kt METAR CYYC 261000Z 33004KT 15SM FEW230 09/M04 A2986 RMK CI2 SLP120 DENSITY ALT 3900FT
3:00 a. m.
V
48 °F 15 mi - Var 000° 0 kt METAR CYYC 260900Z 00000KT 15SM SKC 09/M04 A2985 RMK SLP117 DENSITY ALT 3800FT
2:00 a. m.
V
50 °F 15 mi - 330° 330° 6 kt METAR CYYC 260800Z 33006KT 15SM SKC 10/M04 A2983 RMK SLP111 DENSITY ALT 4000FT
1:00 a. m.
V
52 °F 15 mi - 300° 300° 8 kt METAR CYYC 260700Z 30008KT 15SM SKC 11/M04 A2983 RMK SLP108 DENSITY ALT 4100FT
12:00 a. m.
V
54 °F 15 mi - 300° 300° 11 kt METAR CYYC 260600Z 30011KT 15SM SKC 12/M03 A2982 RMK SLP104 DENSITY ALT 4300FT

25 de mayo de 2022

Hora Código Tiempo Temp. Visibilidad Cielo nuboso Viento METAR/SPECI
11:00 p. m.
V
55 °F 15 mi - 300° 300° 13 kt METAR CYYC 260500Z 30013KT 15SM FEW100 13/M03 A2981 RMK AC1 SLP099 DENSITY ALT 4400FT
10:00 p. m.
V
57 °F 20 mi - 290° 290° 13 - 19 kt METAR CYYC 260400Z 29013G19KT 20SM FEW092 14/M03 A2979 RMK AC1 SLP094 DENSITY ALT 4600FT
9:00 p. m.
V
61 °F 30 mi - 290° 290° 14 - 24 kt METAR CYYC 260300Z 29014G24KT 30SM FEW091 16/M04 A2977 RMK AC2 SLP086 DENSITY ALT 4800FT
8:00 p. m.
V
63 °F 30 mi - 280° 280° 17 - 23 kt METAR CYYC 260200Z 28017G23KT 30SM FEW091 17/M03 A2976 RMK AC2 VIRGA NE SLP083 DENSITY ALT 4900FT
7:00 p. m.
V
64 °F 25 mi - 280° 280° 17 - 27 kt METAR CYYC 260100Z 28017G27KT 25SM SCT091 SCT220 18/M03 A2975 RMK AC3CI1 CI TR VIRGA NE SLP080 DENSITY ALT 5100FT
6:00 p. m.
V
66 °F 30 mi 10.000 ft 280° 280° 14 - 21 kt METAR CYYC 260000Z 28014G21KT 30SM BKN100 19/M04 A2974 RMK AC5 VIRGA NE SLP076 DENSITY ALT 5200FT
5:00 p. m.
V
66 °F 40 mi 8.800 ft 300° 300° 10 - 16 kt METAR CYYC 252300Z 30010G16KT 40SM BKN088 19/M04 A2974 RMK AC6 SLP080 DENSITY ALT 5200FT
4:00 p. m.
V
66 °F 40 mi 8.700 ft 250° 250° 6 kt METAR CYYC 252200Z 25006KT 230V340 40SM BKN087 BKN220 19/M03 A2975 RMK AC6CI1 VIRGA NW-N SLP082 DENSITY ALT 5100FT
3:00 p. m.
V
64 °F 40 mi 8.600 ft 320° 320° 10 kt METAR CYYC 252100Z 32010KT 290V360 40SM BKN086 BKN110 BKN220 18/M03 A2975 RMK AC6AC1CI1 AC TR SLP083 DENSITY ALT 5000FT
2:00 p. m.
V
63 °F 40 mi 8.300 ft 360° 360° 6 kt METAR CYYC 252000Z 36006KT 280V040 40SM BKN083 OVC100 17/M03 A2976 RMK AC7AC1 SLP084 DENSITY ALT 4900FT
1:00 p. m.
V
63 °F 40 mi 7.600 ft 290° 290° 11 kt METAR CYYC 251900Z 29011KT 280V010 40SM BKN076 BKN100 BKN220 17/M03 A2976 RMK AC6AC1CI1 CI TR SLP084 DENSITY ALT 4900FT
12:00 p. m.
V
63 °F 40 mi 7.100 ft 290° 290° 7 kt METAR CYYC 251800Z 29007KT 230V330 40SM BKN071 BKN220 17/M01 A2977 RMK AC5CI2 SLP087 DENSITY ALT 4900FT
11:00 a. m.
V
63 °F 40 mi 6.900 ft 290° 290° 13 kt METAR CYYC 251700Z 29013KT 230V320 40SM BKN069 BKN210 17/M02 A2978 RMK AC5CI2 SLP091 DENSITY ALT 4800FT
10:00 a. m.
V
59 °F 40 mi 22.000 ft 270° 270° 9 - 15 kt METAR CYYC 251600Z 27009G15KT 220V300 40SM SCT110 BKN220 15/M01 A2979 RMK AC3CI4 SLP096 DENSITY ALT 4700FT
9:00 a. m.
V
57 °F 35 mi 10.000 ft 280° 280° 9 kt METAR CYYC 251500Z CCA 28009KT 35SM BKN100 BKN200 14/M01 A2979 RMK AC5CI2 SLP096 DENSITY ALT 4500FT
Datos más antiguos

Descarga nuestra aplicación

Acceso fácil a todo el tiempo de la aviación en tu teléfono móvil y tableta.
Con muchas funciones no disponibles en el sitio web, como la compatibilidad sin conexión y una lista personal de aeropuertos.

Nosotros y terceros seguimos tu comportamiento en Internet en nuestro sitio web con cookies. Si continúas, asumimos que estás de acuerdo con nuestra política de cookies. Más información